Time;durP1;ratioP1;P1;durP2;ratioP2;P2;SDS_P1;SDS_P2;PMS_P1;PMS_P2;Temp;Humidity;BMP_temperature;BMP_pressure;BME280_temperature;BME280_humidity;BME280_pressure;Samples;Min_cycle;Max_cycle;Signal;HPM_P1;HPM_P2
2021/05/14 00:02:09;;;;;;;;;;;9.40;99.90;;;;;;5092764;28;20020;-79
2021/05/14 00:04:34;;;;;;;;;;;9.50;99.90;;;;;;5092708;28;19904;-79
2021/05/14 00:07:00;;;;;;;;;;;9.40;99.90;;;;;;5092707;28;19904;-79
2021/05/14 00:09:25;;;;;;;;;;;9.30;99.90;;;;;;5092361;28;19908;-79
2021/05/14 00:11:51;;;;;;;;;;;9.30;99.90;;;;;;5092806;28;19911;-79
2021/05/14 00:14:16;;;;;;;;;;;9.20;99.90;;;;;;5093787;28;19908;-79
2021/05/14 00:16:42;;;;;;;;;;;9.20;99.90;;;;;;5092526;28;19908;-79
2021/05/14 00:19:08;;;;;;;;;;;9.20;99.90;;;;;;5092133;28;19908;-80
2021/05/14 00:21:33;;;;;;;;;;;9.20;99.90;;;;;;5092575;28;19904;-79
2021/05/14 00:23:59;;;;;;;;;;;9.20;99.90;;;;;;5092429;28;19908;-79
2021/05/14 00:26:24;;;;;;;;;;;9.20;99.90;;;;;;5093635;28;19904;-79
2021/05/14 00:28:50;;;;;;;;;;;9.20;99.90;;;;;;5093117;28;19927;-79
2021/05/14 00:31:16;;;;;;;;;;;9.20;99.90;;;;;;5092061;28;19908;-79
2021/05/14 00:33:41;;;;;;;;;;;9.20;99.90;;;;;;5092400;28;20377;-79
2021/05/14 00:36:07;;;;;;;;;;;9.30;99.90;;;;;;5093282;28;20048;-79
2021/05/14 00:38:33;;;;;;;;;;;9.30;99.90;;;;;;5093173;28;19908;-80
2021/05/14 00:40:58;;;;;;;;;;;9.40;99.90;;;;;;5092088;28;19985;-79
2021/05/14 00:43:23;;;;;;;;;;;9.60;99.90;;;;;;5092153;28;19904;-79
2021/05/14 00:45:49;;;;;;;;;;;9.70;99.90;;;;;;5092059;28;19931;-79
2021/05/14 00:48:14;;;;;;;;;;;9.70;99.90;;;;;;5091993;28;19947;-79
2021/05/14 00:50:40;;;;;;;;;;;9.70;99.90;;;;;;5091824;28;20052;-79
2021/05/14 00:53:06;;;;;;;;;;;9.70;99.90;;;;;;5092011;28;19904;-79
2021/05/14 00:55:32;;;;;;;;;;;9.80;99.90;;;;;;5091886;28;19908;-79
2021/05/14 00:57:57;;;;;;;;;;;9.80;99.90;;;;;;5092014;28;19904;-79
2021/05/14 01:00:23;;;;;;;;;;;9.80;99.90;;;;;;5091380;28;19939;-79
2021/05/14 01:02:51;;;;;;;;;;;9.80;99.90;;;;;;5091749;28;19946;-79
2021/05/14 01:05:18;;;;;;;;;;;9.80;99.90;;;;;;5092290;28;19904;-79
2021/05/14 01:07:43;;;;;;;;;;;9.90;99.90;;;;;;5091613;28;19977;-79
2021/05/14 01:10:09;;;;;;;;;;;10.00;99.90;;;;;;5090586;28;20002;-79
2021/05/14 01:12:34;;;;;;;;;;;10.00;99.90;;;;;;5091738;28;20283;-79
2021/05/14 01:15:00;;;;;;;;;;;10.00;99.90;;;;;;5093017;28;20006;-80
2021/05/14 01:17:25;;;;;;;;;;;10.10;99.90;;;;;;5091603;28;19911;-80
2021/05/14 01:19:51;;;;;;;;;;;10.10;99.90;;;;;;5091131;28;19908;-79
2021/05/14 01:22:18;;;;;;;;;;;10.10;99.90;;;;;;5092796;28;20404;-80
2021/05/14 01:24:44;;;;;;;;;;;10.10;99.90;;;;;;5091567;28;19904;-79
2021/05/14 01:27:10;;;;;;;;;;;10.20;99.90;;;;;;5091438;28;20554;-79
2021/05/14 01:29:35;;;;;;;;;;;10.30;99.90;;;;;;5092534;28;19949;-79
2021/05/14 01:32:01;;;;;;;;;;;10.30;99.90;;;;;;5091814;28;20412;-79
2021/05/14 01:34:27;;;;;;;;;;;10.30;99.90;;;;;;5091576;28;19915;-79
2021/05/14 01:36:52;;;;;;;;;;;10.30;99.90;;;;;;5091602;28;19951;-79
2021/05/14 01:39:22;;;;;;;;;;;10.30;99.90;;;;;;5092501;28;20010;-79
2021/05/14 01:41:48;;;;;;;;;;;10.20;99.90;;;;;;5090084;28;20376;-79
2021/05/14 01:44:13;;;;;;;;;;;10.30;99.90;;;;;;5076507;28;20015;-80
2021/05/14 01:46:38;;;;;;;;;;;10.30;99.90;;;;;;5083649;28;19908;-79
2021/05/14 01:49:04;;;;;;;;;;;10.30;99.90;;;;;;5077134;28;20007;-79
2021/05/14 01:51:30;;;;;;;;;;;10.20;99.90;;;;;;5075560;28;19920;-79
2021/05/14 01:53:55;;;;;;;;;;;10.20;99.90;;;;;;5071074;28;19905;-79
2021/05/14 01:56:21;;;;;;;;;;;10.20;99.90;;;;;;5071127;28;19947;-79
2021/05/14 01:58:47;;;;;;;;;;;10.20;99.90;;;;;;5070742;28;19909;-79
2021/05/14 02:01:12;;;;;;;;;;;10.20;99.90;;;;;;5070961;28;20298;-79
2021/05/14 02:03:38;;;;;;;;;;;10.20;99.90;;;;;;5071077;28;19912;-79
2021/05/14 02:06:04;;;;;;;;;;;10.30;99.90;;;;;;5072214;28;19913;-79
2021/05/14 02:08:30;;;;;;;;;;;10.20;99.90;;;;;;5070808;28;19915;-80
2021/05/14 02:10:56;;;;;;;;;;;10.10;99.90;;;;;;5072087;28;19911;-79
2021/05/14 02:13:22;;;;;;;;;;;10.10;99.90;;;;;;5072223;28;19991;-79
2021/05/14 02:15:47;;;;;;;;;;;10.10;99.90;;;;;;5071084;28;19904;-79
2021/05/14 02:18:12;;;;;;;;;;;10.00;99.90;;;;;;5070679;28;19904;-79
2021/05/14 02:20:38;;;;;;;;;;;9.90;99.90;;;;;;5071907;28;19918;-80
2021/05/14 02:23:04;;;;;;;;;;;9.90;99.90;;;;;;5075732;28;19943;-80
2021/05/14 02:25:29;;;;;;;;;;;9.90;99.90;;;;;;5074452;28;19908;-79
2021/05/14 02:27:55;;;;;;;;;;;9.90;99.90;;;;;;5074771;28;19940;-79
2021/05/14 02:30:21;;;;;;;;;;;9.80;99.90;;;;;;5075420;28;20351;-79
2021/05/14 02:32:46;;;;;;;;;;;9.80;99.90;;;;;;5074336;28;19954;-79
2021/05/14 02:35:12;;;;;;;;;;;9.90;99.90;;;;;;5074234;28;20286;-79
2021/05/14 02:37:37;;;;;;;;;;;9.80;99.90;;;;;;5074235;28;20283;-79
2021/05/14 02:40:04;;;;;;;;;;;9.80;99.90;;;;;;5075144;28;19911;-79
2021/05/14 02:42:29;;;;;;;;;;;9.80;99.90;;;;;;5074073;28;20405;-79
2021/05/14 02:44:55;;;;;;;;;;;9.80;99.90;;;;;;5074105;28;20006;-79
2021/05/14 02:47:20;;;;;;;;;;;9.80;99.90;;;;;;5073992;28;19904;-79
2021/05/14 02:49:46;;;;;;;;;;;9.70;99.90;;;;;;5073741;28;19958;-79
2021/05/14 02:52:11;;;;;;;;;;;9.80;99.90;;;;;;5074052;28;19905;-79
2021/05/14 02:54:37;;;;;;;;;;;9.90;99.90;;;;;;5073908;28;20256;-79
2021/05/14 02:57:03;;;;;;;;;;;9.90;99.90;;;;;;5073911;28;19927;-79
2021/05/14 02:59:29;;;;;;;;;;;10.00;99.90;;;;;;5073645;28;19909;-79
2021/05/14 03:01:54;;;;;;;;;;;10.00;99.90;;;;;;5073718;28;20367;-79
2021/05/14 03:04:20;;;;;;;;;;;10.00;99.90;;;;;;5074094;28;19909;-79
2021/05/14 03:06:46;;;;;;;;;;;9.90;99.90;;;;;;5074197;28;19959;-79
2021/05/14 03:09:11;;;;;;;;;;;9.80;99.90;;;;;;5073366;28;20451;-79
2021/05/14 03:11:36;;;;;;;;;;;9.70;99.90;;;;;;5073764;28;19904;-79
2021/05/14 03:14:03;;;;;;;;;;;9.70;99.90;;;;;;5073796;28;19916;-79
2021/05/14 03:16:29;;;;;;;;;;;9.60;99.90;;;;;;5074755;28;19912;-79
2021/05/14 03:18:55;;;;;;;;;;;9.60;99.90;;;;;;5073212;28;19908;-79
2021/05/14 03:21:20;;;;;;;;;;;9.50;99.90;;;;;;5074516;28;19965;-79
2021/05/14 03:23:46;;;;;;;;;;;9.40;99.90;;;;;;5073422;28;19912;-79
2021/05/14 03:26:11;;;;;;;;;;;9.30;99.90;;;;;;5073220;28;19958;-79
2021/05/14 03:28:37;;;;;;;;;;;9.30;99.90;;;;;;5073071;28;20374;-79
2021/05/14 03:31:02;;;;;;;;;;;9.30;99.90;;;;;;5074482;28;20003;-79
2021/05/14 03:33:28;;;;;;;;;;;9.30;99.90;;;;;;5072324;28;19904;-79
2021/05/14 03:35:53;;;;;;;;;;;9.30;99.90;;;;;;5074329;28;20025;-79
2021/05/14 03:38:22;;;;;;;;;;;9.20;99.90;;;;;;5072973;28;20111;-79
2021/05/14 03:40:48;;;;;;;;;;;9.30;99.90;;;;;;5073038;28;20329;-79
2021/05/14 03:43:13;;;;;;;;;;;9.30;99.90;;;;;;5074391;28;19908;-79
2021/05/14 03:45:39;;;;;;;;;;;9.20;99.90;;;;;;5074224;28;19908;-79
2021/05/14 03:48:18;;;;;;;;;;;9.20;99.90;;;;;;5072993;28;19905;-79
2021/05/14 03:50:43;;;;;;;;;;;9.20;99.90;;;;;;5072846;28;19927;-79
2021/05/14 03:53:09;;;;;;;;;;;9.10;99.90;;;;;;5072861;28;20355;-79
2021/05/14 03:55:35;;;;;;;;;;;9.00;99.90;;;;;;5072767;28;19904;-79
2021/05/14 03:58:00;;;;;;;;;;;9.00;99.90;;;;;;5072639;28;19904;-79
2021/05/14 04:00:26;;;;;;;;;;;9.00;99.90;;;;;;5072267;28;19908;-79
2021/05/14 04:02:52;;;;;;;;;;;9.00;99.90;;;;;;5073770;28;19998;-79
2021/05/14 04:05:18;;;;;;;;;;;9.10;99.90;;;;;;5072626;28;19912;-79
2021/05/14 04:07:44;;;;;;;;;;;9.10;99.90;;;;;;5072419;28;19904;-79
2021/05/14 04:15:04;;;;;;;;;;;9.30;99.90;;;;;;5073987;28;19996;-79
2021/05/14 04:17:29;;;;;;;;;;;9.40;99.90;;;;;;5072235;28;19909;-80
2021/05/14 04:19:55;;;;;;;;;;;9.50;99.90;;;;;;5071933;28;19908;-80
2021/05/14 04:22:21;;;;;;;;;;;9.60;99.90;;;;;;5072192;28;19908;-79
2021/05/14 04:24:46;;;;;;;;;;;9.60;99.90;;;;;;5072046;28;19999;-80
2021/05/14 04:27:14;;;;;;;;;;;9.60;99.90;;;;;;5072250;28;19904;-79
2021/05/14 04:29:39;;;;;;;;;;;9.70;99.90;;;;;;5071943;28;19904;-79
2021/05/14 04:32:05;;;;;;;;;;;9.80;99.90;;;;;;5072029;28;19927;-79
2021/05/14 04:34:30;;;;;;;;;;;9.90;99.90;;;;;;5071929;28;19908;-79
2021/05/14 04:36:56;;;;;;;;;;;9.90;99.90;;;;;;5072143;28;19910;-79
2021/05/14 04:39:21;;;;;;;;;;;9.90;99.90;;;;;;5071616;28;19908;-79
2021/05/14 04:41:47;;;;;;;;;;;10.10;99.90;;;;;;5072092;28;20323;-79
2021/05/14 04:44:14;;;;;;;;;;;10.10;99.90;;;;;;5071645;28;20421;-79
2021/05/14 04:46:39;;;;;;;;;;;10.10;99.90;;;;;;5070793;28;19961;-79
2021/05/14 04:49:04;;;;;;;;;;;10.10;99.90;;;;;;5070591;28;19909;-79
2021/05/14 04:51:30;;;;;;;;;;;10.20;99.90;;;;;;5070522;28;19927;-79
2021/05/14 04:53:56;;;;;;;;;;;10.20;99.90;;;;;;5070667;28;20389;-79
2021/05/14 04:56:21;;;;;;;;;;;10.40;99.90;;;;;;5072201;28;20299;-80
2021/05/14 04:58:47;;;;;;;;;;;10.70;99.90;;;;;;5070450;28;20378;-79
2021/05/14 05:01:13;;;;;;;;;;;11.00;99.90;;;;;;5070675;28;19904;-79
2021/05/14 05:03:42;;;;;;;;;;;11.10;99.90;;;;;;5070528;28;19911;-79
2021/05/14 05:06:07;;;;;;;;;;;11.30;99.90;;;;;;5070679;28;19947;-79
2021/05/14 05:08:33;;;;;;;;;;;11.50;99.90;;;;;;5070375;28;19912;-79
2021/05/14 05:10:58;;;;;;;;;;;11.30;99.90;;;;;;5070546;28;19904;-79
2021/05/14 05:13:23;;;;;;;;;;;11.20;99.90;;;;;;5070404;28;19904;-80
2021/05/14 05:15:49;;;;;;;;;;;11.10;99.90;;;;;;5070858;28;19939;-79
2021/05/14 05:18:14;;;;;;;;;;;11.00;99.90;;;;;;5070411;28;19905;-79
2021/05/14 05:20:40;;;;;;;;;;;10.90;99.90;;;;;;5070304;28;19904;-79
2021/05/14 05:23:06;;;;;;;;;;;10.90;99.90;;;;;;5071706;28;20299;-79
2021/05/14 05:25:31;;;;;;;;;;;11.10;99.90;;;;;;5070345;28;19935;-79
2021/05/14 05:27:57;;;;;;;;;;;11.10;99.90;;;;;;5070467;28;20329;-79
2021/05/14 05:30:24;;;;;;;;;;;11.30;99.90;;;;;;5070171;28;19904;-80
2021/05/14 05:32:49;;;;;;;;;;;11.60;99.90;;;;;;5075660;28;19907;-79
2021/05/14 05:35:15;;;;;;;;;;;11.80;99.90;;;;;;5080955;28;20438;-79
2021/05/14 05:37:40;;;;;;;;;;;12.00;99.90;;;;;;5088010;28;20298;-79
2021/05/14 05:40:06;;;;;;;;;;;12.20;99.90;;;;;;5089878;28;19915;-79
2021/05/14 05:42:31;;;;;;;;;;;12.40;99.90;;;;;;5091768;28;19915;-79
2021/05/14 05:44:57;;;;;;;;;;;12.40;99.90;;;;;;5087245;28;19947;-79
2021/05/14 05:47:22;;;;;;;;;;;12.30;99.90;;;;;;5091212;28;19908;-78
2021/05/14 05:49:48;;;;;;;;;;;12.50;99.90;;;;;;5090227;28;19904;-79
2021/05/14 05:52:13;;;;;;;;;;;12.50;99.90;;;;;;5091416;28;19904;-79
2021/05/14 05:54:39;;;;;;;;;;;12.50;99.90;;;;;;5091483;28;19977;-79
2021/05/14 05:57:05;;;;;;;;;;;12.50;99.90;;;;;;5093804;28;19994;-79
2021/05/14 05:59:30;;;;;;;;;;;12.40;99.90;;;;;;5093853;28;19986;-79
2021/05/14 06:01:56;;;;;;;;;;;12.50;99.90;;;;;;5095094;28;19918;-79
2021/05/14 06:04:21;;;;;;;;;;;12.60;99.90;;;;;;5094217;28;19904;-79
2021/05/14 06:06:47;;;;;;;;;;;12.60;99.90;;;;;;5083199;28;19915;-79
2021/05/14 06:09:12;;;;;;;;;;;12.80;99.90;;;;;;5082155;28;20321;-80
2021/05/14 06:11:38;;;;;;;;;;;13.00;99.90;;;;;;5079709;28;20014;-79
2021/05/14 06:14:03;;;;;;;;;;;13.50;99.90;;;;;;5090249;28;19908;-80
2021/05/14 06:16:29;;;;;;;;;;;14.50;99.90;;;;;;5094723;28;20367;-80
2021/05/14 06:19:04;;;;;;;;;;;15.30;99.90;;;;;;5075523;28;20371;-80
2021/05/14 06:21:30;;;;;;;;;;;15.60;99.90;;;;;;5075288;28;19905;-79
2021/05/14 06:23:56;;;;;;;;;;;15.20;99.90;;;;;;5075439;28;19912;-81
2021/05/14 06:26:21;;;;;;;;;;;15.00;99.90;;;;;;5074621;28;19904;-81
2021/05/14 06:28:46;;;;;;;0.40;0.40;;;14.50;99.90;;;;;;5074301;28;20387;-81
2021/05/14 06:31:12;;;;;;;0.40;0.40;;;14.30;99.90;;;;;;5074419;28;20021;-79
2021/05/14 06:33:38;;;;;;;0.25;0.20;;;14.10;99.90;;;;;;5074446;28;20075;-79
2021/05/14 06:36:04;;;;;;;1.27;0.40;;;14.00;99.90;;;;;;5093707;28;20448;-79
2021/05/14 06:38:33;;;;;;;0.68;0.43;;;14.00;99.90;;;;;;5092768;28;20097;-81
2021/05/14 06:41:00;;;;;;;;;;;14.10;99.90;;;;;;5092747;28;20034;-79
2021/05/14 06:43:25;;;;;;;;;;;14.20;99.90;;;;;;5094199;28;19962;-81
2021/05/14 06:45:51;;;;;;;;;;;14.30;99.90;;;;;;5095710;28;19904;-80
2021/05/14 06:48:16;;;;;;;;;;;14.70;99.90;;;;;;5096237;28;19911;-80
2021/05/14 06:50:42;;;;;;;;;;;15.20;99.90;;;;;;5097481;28;19926;-81
2021/05/14 06:53:08;;;;;;;0.52;0.52;;;15.80;99.90;;;;;;5098158;28;19904;-81
2021/05/14 06:55:34;;;;;;;0.52;0.52;;;16.70;99.90;;;;;;5099092;28;20441;-81
2021/05/14 06:58:03;;;;;;;3.10;0.52;;;18.10;99.90;;;;;;5097739;28;20036;-81
2021/05/14 07:00:29;;;;;;;0.40;0.15;;;19.30;99.90;;;;;;5092286;28;20063;-81
2021/05/14 07:02:54;;;;;;;0.47;0.20;;;19.30;99.90;;;;;;5087220;28;20395;-82
2021/05/14 07:05:20;;;;;;;0.73;0.52;;;19.00;99.90;;;;;;5087745;28;20064;-81
2021/05/14 07:07:45;;;;;;;;;;;19.60;99.90;;;;;;5085699;28;20022;-81
2021/05/14 07:10:12;;;;;;;0.70;0.20;;;19.40;99.90;;;;;;5075018;28;20303;-81
2021/05/14 07:12:39;;;;;;;0.20;0.15;;;19.10;99.90;;;;;;5076624;28;20021;-81
2021/05/14 07:15:07;;;;;;;0.68;0.10;;;19.60;99.90;;;;;;5076368;28;20029;-82
2021/05/14 07:17:33;;;;;;;;;;;19.80;99.90;;;;;;5076201;28;20028;-81
2021/05/14 07:19:59;;;;;;;0.20;0.10;;;20.20;99.90;;;;;;5075797;28;20272;-81
2021/05/14 07:22:24;;;;;;;0.20;0.13;;;23.60;99.90;;;;;;5078627;28;20086;-81
2021/05/14 07:24:50;;;;;;;;;;;27.00;89.10;;;;;;5077271;28;20028;-82
2021/05/14 07:27:16;;;;;;;0.65;0.38;;;28.70;73.50;;;;;;5075742;28;20026;-80
2021/05/14 07:29:42;;;;;;;0.52;0.52;;;29.40;64.80;;;;;;5075835;28;20468;-82
2021/05/14 07:32:08;;;;;;;0.88;0.25;;;30.30;62.50;;;;;;5077730;28;20033;-83
2021/05/14 07:34:34;;;;;;;;;;;30.90;59.70;;;;;;5078430;28;20029;-80
2021/05/14 07:36:59;;;;;;;0.15;0.15;;;29.70;59.00;;;;;;5076781;28;19915;-82
2021/05/14 07:39:25;;;;;;;0.20;0.20;;;29.40;60.00;;;;;;5076063;28;20399;-82
2021/05/14 07:41:51;;;;;;;0.67;0.30;;;30.70;58.90;;;;;;5076056;28;20021;-82
2021/05/14 07:44:16;;;;;;;0.20;0.10;;;31.60;57.50;;;;;;5080525;28;20044;-82
2021/05/14 07:46:42;;;;;;;1.53;0.20;;;33.10;52.70;;;;;;5087318;28;20562;-80
2021/05/14 07:49:08;;;;;;;0.20;0.20;;;32.70;50.90;;;;;;5086029;28;20266;-82
2021/05/14 07:51:33;;;;;;;0.50;0.50;;;32.30;52.40;;;;;;5084367;28;20074;-82
2021/05/14 07:53:59;;;;;;;0.10;0.10;;;31.10;53.50;;;;;;5088301;28;20024;-82
2021/05/14 07:56:25;;;;;;;0.57;0.20;;;32.60;53.90;;;;;;5085407;28;20361;-81
2021/05/14 07:58:50;;;;;;;0.30;0.17;;;33.40;50.90;;;;;;5086979;28;20056;-82
2021/05/14 08:01:16;;;;;;;0.33;0.10;;;31.10;51.60;;;;;;5085537;28;20107;-81
2021/05/14 08:03:41;;;;;;;0.10;0.10;;;30.30;53.00;;;;;;5085920;28;20013;-79
2021/05/14 08:06:07;;;;;;;0.33;0.10;;;28.80;54.00;;;;;;5084871;28;20016;-79
2021/05/14 08:08:37;;;;;;;0.20;0.20;;;29.80;53.70;;;;;;5083560;28;20016;-82
2021/05/14 08:11:03;;;;;;;;;;;29.50;54.10;;;;;;5083128;28;20115;-80
2021/05/14 08:13:28;;;;;;;;;;;29.10;55.00;;;;;;5083657;28;19916;-81
2021/05/14 08:15:54;;;;;;;0.53;0.53;;;31.50;54.40;;;;;;5085172;28;20025;-82
2021/05/14 08:18:21;;;;;;;0.13;0.10;;;32.60;50.70;;;;;;5085651;28;20039;-81
2021/05/14 08:20:47;;;;;;;0.25;0.25;;;32.90;50.40;;;;;;5084981;28;20027;-82
2021/05/14 08:23:15;;;;;;;0.20;0.13;;;31.40;52.70;;;;;;5087350;28;20077;-82
2021/05/14 08:25:41;;;;;;;;;;;30.10;52.40;;;;;;5087039;28;20073;-80
2021/05/14 08:28:06;;;;;;;;;;;28.40;54.20;;;;;;5086163;28;19904;-82
2021/05/14 08:30:32;;;;;;;;;;;27.30;57.60;;;;;;5083056;28;19904;-83
2021/05/14 08:32:58;;;;;;;;;;;29.30;54.80;;;;;;5085913;28;19909;-80
2021/05/14 08:35:23;;;;;;;0.10;0.00;;;30.50;51.60;;;;;;5094087;28;19912;-81
2021/05/14 08:37:49;;;;;;;0.20;0.20;;;31.00;50.80;;;;;;5095968;28;20023;-80
2021/05/14 08:40:15;;;;;;;0.50;0.20;;;30.50;51.50;;;;;;5078865;28;20024;-81
2021/05/14 08:42:41;;;;;;;;;;;29.80;52.40;;;;;;5075643;28;20138;-82
2021/05/14 08:45:09;;;;;;;0.10;0.00;;;29.50;53.90;;;;;;5075929;28;20109;-83
2021/05/14 08:47:38;;;;;;;;;;;30.60;53.80;;;;;;5075805;28;20430;-80
2021/05/14 08:50:05;;;;;;;;;;;31.00;51.50;;;;;;5085351;28;19918;-81
2021/05/14 08:52:34;;;;;;;0.10;0.10;;;31.30;51.10;;;;;;5079626;28;19905;-82
2021/05/14 08:55:00;;;;;;;;;;;31.30;50.40;;;;;;5079734;28;20048;-81
2021/05/14 08:57:26;;;;;;;;;;;31.50;51.10;;;;;;5078401;28;19911;-80
2021/05/14 08:59:52;;;;;;;;;;;29.90;48.90;;;;;;5080013;28;19908;-81
2021/05/14 09:02:17;;;;;;;;;;;29.00;52.80;;;;;;5098913;28;19904;-83
2021/05/14 09:04:43;;;;;;;;;;;30.70;51.50;;;;;;5098009;28;21005;-82
2021/05/14 09:07:12;;;;;;;;;;;32.10;51.60;;;;;;5082736;28;19954;-82
2021/05/14 09:09:37;;;;;;;;;;;31.70;49.50;;;;;;5078517;28;20263;-83
2021/05/14 09:12:03;;;;;;;0.20;0.10;;;30.90;50.90;;;;;;5078655;28;20279;-82
2021/05/14 09:14:44;;;;;;;0.10;0.10;;;31.60;48.80;;;;;;5078192;28;20095;-81
2021/05/14 09:17:11;;;;;;;;;;;30.80;48.90;;;;;;5080135;28;20777;-82
2021/05/14 09:19:37;;;;;;;;;;;30.50;52.40;;;;;;5076784;28;19915;-80
2021/05/14 09:22:07;;;;;;;;;;;31.20;50.00;;;;;;5076382;28;19911;-79
2021/05/14 09:24:32;;;;;;;;;;;31.10;50.90;;;;;;5077539;28;19928;-79
2021/05/14 09:26:58;;;;;;;;;;;32.00;49.90;;;;;;5077176;28;20355;-84
2021/05/14 09:29:36;;;;;;;;;;;31.80;49.50;;;;;;5076319;28;19905;-82
2021/05/14 09:32:18;;;;;;;;;;;31.70;48.30;;;;;;5082573;28;19951;-84
2021/05/14 09:34:46;;;;;;;;;;;31.40;50.70;;;;;;5081457;28;19934;-81
2021/05/14 09:37:15;;;;;;;;;;;31.30;49.40;;;;;;5082685;28;19972;-83
2021/05/14 09:39:41;;;;;;;;;;;31.70;49.20;;;;;;5080746;28;19915;-81
2021/05/14 09:42:06;;;;;;;;;;;30.40;48.20;;;;;;5081017;28;19904;-83
2021/05/14 09:44:32;;;;;;;;;;;30.60;49.70;;;;;;5080753;28;19928;-81
2021/05/14 09:46:58;;;;;;;;;;;29.90;49.30;;;;;;5082327;28;19904;-84
2021/05/14 09:49:24;;;;;;;;;;;30.20;51.80;;;;;;5081587;28;19947;-82
2021/05/14 09:51:58;;;;;;;0.32;0.10;;;29.80;51.00;;;;;;5081462;28;19908;-82
2021/05/14 09:54:26;;;;;;;1.35;0.20;;;28.30;52.80;;;;;;5080104;28;20021;-82
2021/05/14 09:57:04;;;;;;;;;;;27.40;53.90;;;;;;5080507;28;20024;-82
2021/05/14 09:59:32;;;;;;;;;;;26.30;52.60;;;;;;5083630;28;20397;-82
2021/05/14 10:01:58;;;;;;;;;;;25.70;57.30;;;;;;5082979;28;19973;-80
2021/05/14 10:04:23;;;;;;;;;;;25.80;55.70;;;;;;5083724;28;19905;-81
2021/05/14 10:06:49;;;;;;;;;;;26.20;55.20;;;;;;5083875;28;19999;-82
2021/05/14 10:09:19;;;;;;;;;;;25.30;55.80;;;;;;5084050;28;19905;-82
2021/05/14 10:11:44;;;;;;;;;;;24.40;58.00;;;;;;5081061;28;19958;-82
2021/05/14 10:14:10;;;;;;;;;;;23.50;58.20;;;;;;5081462;28;20268;-81
2021/05/14 10:16:35;;;;;;;;;;;23.00;62.80;;;;;;5079781;28;19919;-81
2021/05/14 10:19:01;;;;;;;;;;;22.60;61.40;;;;;;5079152;28;20318;-83
2021/05/14 10:21:27;;;;;;;;;;;23.00;62.10;;;;;;5079791;28;19927;-82
2021/05/14 10:23:52;;;;;;;;;;;24.20;58.00;;;;;;5080144;28;19909;-83
2021/05/14 10:26:18;;;;;;;;;;;24.80;58.30;;;;;;5079870;28;19904;-82
2021/05/14 10:28:44;;;;;;;;;;;24.30;57.60;;;;;;5081758;28;19908;-82
2021/05/14 10:31:14;;;;;;;;;;;23.10;57.10;;;;;;5079510;28;20011;-81
2021/05/14 10:33:42;;;;;;;;;;;23.00;60.00;;;;;;5090743;28;20012;-83
2021/05/14 10:36:14;;;;;;;;;;;22.40;61.80;;;;;;5089644;28;19919;-81
2021/05/14 10:38:39;;;;;;;;;;;21.20;64.00;;;;;;5088563;28;19912;-84
2021/05/14 10:41:26;;;;;;;;;;;20.80;65.20;;;;;;5086472;28;19905;-82
2021/05/14 10:44:03;;;;;;;;;;;21.60;68.30;;;;;;5088835;28;20275;-83
2021/05/14 10:46:29;;;;;;;;;;;24.80;57.80;;;;;;5088581;28;19908;-82
2021/05/14 10:48:59;;;;;;;;;;;24.90;55.40;;;;;;5087493;28;19962;-82
2021/05/14 10:51:40;;;;;;;;;;;24.00;57.50;;;;;;5089009;28;19904;-82
2021/05/14 10:54:06;;;;;;;;;;;22.20;62.20;;;;;;5087108;28;19904;-83
2021/05/14 10:56:31;;;;;;;;;;;20.40;69.60;;;;;;5086926;28;19904;-83
2021/05/14 10:59:00;;;;;;;;;;;19.90;72.90;;;;;;5087881;28;19962;-79
2021/05/14 11:01:27;;;;;;;;;;;20.50;88.00;;;;;;5083080;28;20351;-81
2021/05/14 11:03:53;;;;;;;;;;;22.70;74.70;;;;;;5088598;28;20295;-83
2021/05/14 11:06:18;;;;;;;;;;;22.20;69.20;;;;;;5087353;28;19912;-83
2021/05/14 11:09:01;;;;;;;;;;;21.40;79.00;;;;;;5088962;28;19910;-81
2021/05/14 11:11:27;;;;;;;;;;;21.20;83.60;;;;;;5087198;28;19908;-84
2021/05/14 11:13:53;;;;;;;;;;;20.80;84.90;;;;;;5081887;28;19999;-84
2021/05/14 11:16:38;;;;;;;;;;;21.00;85.40;;;;;;5078032;28;19958;-83
2021/05/14 11:19:22;;;;;;;;;;;21.00;79.20;;;;;;5078333;28;20355;-82
2021/05/14 11:22:11;;;;;;;;;;;21.20;79.70;;;;;;5079599;28;19911;-84
2021/05/14 11:24:40;;;;;;;;;;;22.40;84.10;;;;;;5079687;28;19927;-82
2021/05/14 11:27:05;;;;;;;;;;;24.60;65.70;;;;;;5079183;28;19904;-81
2021/05/14 11:29:32;;;;;;;;;;;26.00;64.00;;;;;;5088277;28;19914;-83
2021/05/14 11:32:17;;;;;;;;;;;25.50;64.70;;;;;;5088373;28;19915;-84
2021/05/14 11:35:12;;;;;;;0.10;0.00;;;24.20;62.40;;;;;;5082816;28;20405;-82
2021/05/14 11:37:50;;;;;;;;;;;23.40;71.90;;;;;;5071412;28;20037;-83
2021/05/14 11:40:24;;;;;;;0.10;0.10;;;22.80;68.30;;;;;;5086467;28;20359;-80
2021/05/14 11:42:51;;;;;;;0.30;0.30;;;21.90;71.50;;;;;;5088848;28;20054;-82
2021/05/14 11:45:37;;;;;;;;;;;21.40;72.80;;;;;;5098895;28;20111;-82
2021/05/14 11:48:09;;;;;;;;;;;20.80;76.30;;;;;;5091020;28;19929;-81
2021/05/14 11:50:36;;;;;;;;;;;20.90;75.40;;;;;;5086429;28;19908;-82
2021/05/14 11:53:04;;;;;;;;;;;21.70;77.00;;;;;;5087228;28;19939;-82
2021/05/14 11:55:29;;;;;;;;;;;22.60;67.60;;;;;;5086769;28;19914;-81
2021/05/14 11:57:56;;;;;;;;;;;22.80;77.00;;;;;;5087399;28;19908;-83
2021/05/14 12:00:25;;;;;;;;;;;23.10;68.00;;;;;;5086962;28;19908;-85
2021/05/14 12:02:50;;;;;;;;;;;23.00;66.30;;;;;;5086023;28;19907;-82
2021/05/14 12:05:16;;;;;;;;;;;22.80;64.40;;;;;;5088590;28;19947;-82
2021/05/14 12:07:43;;;;;;;0.53;0.10;;;22.70;71.80;;;;;;5088106;28;20290;-80
2021/05/14 12:10:15;;;;;;;0.17;0.08;;;23.40;72.40;;;;;;5089258;28;20023;-81
2021/05/14 12:12:42;;;;;;;0.10;0.10;;;22.90;68.40;;;;;;5088864;28;20023;-83
2021/05/14 12:15:20;;;;;;;0.30;0.10;;;22.90;64.30;;;;;;5088216;28;20510;-81
2021/05/14 12:17:48;;;;;;;0.00;0.00;;;22.90;66.30;;;;;;5083708;28;20024;-84
2021/05/14 12:20:25;;;;;;;1.35;0.20;;;22.70;68.50;;;;;;5079779;28;20031;-82
2021/05/14 12:22:53;;;;;;;1.17;0.30;;;22.90;72.10;;;;;;5086014;28;20028;-83
2021/05/14 12:25:20;;;;;;;0.47;0.20;;;23.00;63.80;;;;;;5096052;28;20028;-84
2021/05/14 12:27:46;;;;;;;0.13;0.13;;;23.40;67.50;;;;;;5083694;28;20147;-82
2021/05/14 12:30:14;;;;;;;0.32;0.10;;;23.70;70.80;;;;;;5078801;28;20052;-86
2021/05/14 12:32:39;;;;;;;0.20;0.10;;;24.10;69.90;;;;;;5078742;28;20020;-80
2021/05/14 12:35:06;;;;;;;;;;;24.20;65.90;;;;;;5077986;28;20125;-81
2021/05/14 12:37:31;;;;;;;;;;;23.90;66.20;;;;;;5078694;28;19911;-82
2021/05/14 12:39:57;;;;;;;;;;;23.20;64.20;;;;;;5079625;28;19908;-84
2021/05/14 12:42:26;;;;;;;;;;;23.10;65.90;;;;;;5078189;28;20357;-83
2021/05/14 12:44:55;;;;;;;;;;;23.50;63.70;;;;;;5084617;28;21515;-84
2021/05/14 12:47:24;;;;;;;;;;;23.80;62.90;;;;;;5084709;28;20354;-83
2021/05/14 12:49:53;;;;;;;;;;;23.30;64.40;;;;;;5078365;28;20279;-83
2021/05/14 12:52:18;;;;;;;;;;;23.10;66.10;;;;;;5098605;28;19909;-83
2021/05/14 12:55:00;;;;;;;;;;;23.40;66.70;;;;;;5099538;28;19915;-80
2021/05/14 12:57:27;;;;;;;;;;;23.10;66.70;;;;;;5100482;28;19909;-83
2021/05/14 12:59:53;;;;;;;;;;;23.30;67.00;;;;;;5099176;28;19919;-83
2021/05/14 13:02:22;;;;;;;;;;;23.10;64.30;;;;;;5096153;28;19913;-83
2021/05/14 13:04:59;;;;;;;;;;;22.60;63.80;;;;;;5081358;28;19915;-81
2021/05/14 13:07:24;;;;;;;;;;;22.20;64.10;;;;;;5075279;28;19978;-81
2021/05/14 13:09:50;;;;;;;;;;;21.70;66.90;;;;;;5073750;28;20371;-82
2021/05/14 13:12:16;;;;;;;;;;;21.00;67.80;;;;;;5073819;28;19935;-83
2021/05/14 13:14:41;;;;;;;;;;;20.20;74.40;;;;;;5074464;28;19913;-81
2021/05/14 13:17:07;;;;;;;;;;;19.50;80.00;;;;;;5073961;28;19931;-83
2021/05/14 13:19:32;;;;;;;;;;;19.00;89.80;;;;;;5074112;28;19913;-81
2021/05/14 13:21:58;;;;;;;;;;;18.70;90.90;;;;;;5073757;28;19950;-82
2021/05/14 13:24:23;;;;;;;;;;;18.50;91.70;;;;;;5076253;28;19956;-82
2021/05/14 13:26:48;;;;;;;;;;;18.20;93.20;;;;;;5074335;28;20002;-81
2021/05/14 13:29:14;;;;;;;;;;;18.20;94.10;;;;;;5074030;28;19913;-81
2021/05/14 13:31:39;;;;;;;;;;;18.30;96.40;;;;;;5074058;28;19911;-83
2021/05/14 13:34:05;;;;;;;;;;;18.60;99.90;;;;;;5074118;28;19913;-81
2021/05/14 13:36:30;;;;;;;;;;;19.40;99.90;;;;;;5076029;28;19927;-83
2021/05/14 13:38:56;;;;;;;;;;;20.20;95.50;;;;;;5084797;28;20283;-83
2021/05/14 13:41:21;;;;;;;;;;;21.00;90.50;;;;;;5073481;28;20383;-81
2021/05/14 13:43:47;;;;;;;;;;;21.60;84.60;;;;;;5086932;28;19908;-81
2021/05/14 13:46:12;;;;;;;;;;;21.80;87.80;;;;;;5094276;28;19948;-81
2021/05/14 13:48:38;;;;;;;;;;;21.90;82.20;;;;;;5093572;28;19908;-82
2021/05/14 13:51:03;;;;;;;;;;;21.60;90.20;;;;;;5093702;28;19908;-81
2021/05/14 13:53:29;;;;;;;;;;;21.60;84.20;;;;;;5093672;28;19908;-83
2021/05/14 13:55:55;;;;;;;;;;;21.30;87.90;;;;;;5080943;28;19977;-81
2021/05/14 13:58:20;;;;;;;;;;;21.30;89.80;;;;;;5073409;28;19912;-82
2021/05/14 14:00:46;;;;;;;;;;;21.10;86.50;;;;;;5074153;28;20253;-83
2021/05/14 14:03:11;;;;;;;;;;;20.50;89.40;;;;;;5073206;28;19939;-82
2021/05/14 14:05:39;;;;;;;;;;;19.90;90.70;;;;;;5074059;28;19939;-83